Flight Track Log - Related Links

Times and Time Zones

All times are in EDT time to prevent confusion due to time zone crossing. See the AAL933 flight status page for this flight to view local times or setup timezone preferences in your user account.

Time Position Orientation Groundspeed Altitude Reporting Facility
EDT Latitude Longitude Course Direction KTS MPH feet Rate Location/Type
Thu 07:01:39 PM 25.7814 -80.2222 179° South 216 249 2,600  Level Miami Center
Thu 07:02:12 PM 25.7722 -80.1983 113° Southeast 209 241 3,700 3,246 Climbing Miami Center
Thu 07:02:40 PM 25.7500 -80.1550 120° Southeast 255 293 5,900 3,871 Climbing Miami Center
Thu 07:03:00 PM 25.4426 -80.2842 153° Southeast  Level Estimated
Thu 07:03:14 PM 25.7158 -80.1292 146° Southeast 267 307 7,700  Level Miami Center
Thu 07:04:00 PM 25.3250 -80.2822 149° Southeast  Level Estimated
Thu 07:04:16 PM 25.6400 -80.1042 163° South 281 323 10,700  Level Miami Center
Thu 07:05:00 PM 25.2074 -80.2803 90° East  Level Estimated
Thu 07:05:18 PM 25.5503 -80.0725 162° South 334 384 12,800  Level Miami Center
Thu 07:06:00 PM 25.0898 -80.2783 179° South  Level Estimated
Thu 07:06:20 PM 25.4511 -80.0400 164° South 367 422 15,800  Level Miami Center
Thu 07:11:30 PM 24.9108 -79.7156 180° South 459 528 27,000 2,145 Climbing Miami Center
Thu 07:12:32 PM 24.7856 -79.6825 167° South 460 529 29,100 1,790 Climbing Miami Center
Thu 07:13:34 PM 24.6597 -79.6639 172° South 453 521 30,700 1,597 Climbing Miami Center
Thu 07:14:36 PM 24.5303 -79.6447 172° South 463 533 32,400 1,387 Climbing Miami Center
Thu 07:16:40 PM 24.2744 -79.6042 181° South 464 534 35,000 839 Climbing Miami Center
Thu 07:17:42 PM 24.1225 -79.5808 172° South 460 529 35,000  Level Miami Center
Thu 07:18:00 PM 24.0791 -80.0312 148° Southeast  Level Estimated
Thu 07:18:00 PM 24.1304 -79.6488 181° South  Level Estimated
Thu 07:18:44 PM 23.9958 -79.5614 172° South 460 529 35,000  Level Miami Center
Thu 07:19:00 PM 23.9615 -80.0304 180° South  Level Estimated
Thu 07:20:00 PM 23.8439 -80.0297 180° South  Level Estimated
Thu 07:22:00 PM 23.5891 -79.4929 171° South  Level FlightAware Approximate
Thu 07:29:00 PM 22.7167 -79.3526 172° South  Level FlightAware Approximate
Thu 07:30:00 PM 22.5920 -79.3330 172° South  Level FlightAware Approximate
Thu 07:31:00 PM 22.4673 -79.3134 172° South  Level FlightAware Approximate
Thu 07:32:00 PM 22.3426 -79.2939 172° South  Level FlightAware Approximate
Thu 07:33:00 PM 22.2180 -79.2744 172° South  Level FlightAware Approximate
Thu 07:34:00 PM 22.0933 -79.2550 172° South  Level FlightAware Approximate
Thu 07:35:00 PM 21.9686 -79.2355 172° South  Level FlightAware Approximate
Thu 07:36:00 PM 21.8439 -79.2161 172° South  Level FlightAware Approximate
Thu 07:37:00 PM 21.7192 -79.1968 172° South  Level FlightAware Approximate
Thu 07:38:00 PM 21.5945 -79.1775 172° South  Level FlightAware Approximate
Thu 07:39:00 PM 21.4698 -79.1582 172° South  Level FlightAware Approximate
Thu 07:40:00 PM 21.3451 -79.1389 172° South  Level FlightAware Approximate
Thu 07:41:00 PM 21.2204 -79.1197 172° South  Level FlightAware Approximate
Thu 07:42:00 PM 21.0957 -79.1005 172° South  Level FlightAware Approximate
Thu 07:43:00 PM 20.9710 -79.0814 172° South  Level FlightAware Approximate
Thu 07:44:00 PM 20.8463 -79.0623 172° South  Level FlightAware Approximate
Thu 07:45:00 PM 20.7216 -79.0432 172° South  Level FlightAware Approximate
Thu 07:46:00 PM 20.5969 -79.0241 172° South  Level FlightAware Approximate
Thu 07:47:00 PM 20.4722 -79.0051 172° South  Level FlightAware Approximate
Thu 07:48:00 PM 20.3475 -78.9861 172° South  Level FlightAware Approximate
Thu 07:49:00 PM 20.2228 -78.9671 172° South  Level FlightAware Approximate
Thu 07:50:00 PM 20.0981 -78.9482 172° South  Level FlightAware Approximate
Thu 07:51:00 PM 19.9731 -78.9348 183° South  Level FlightAware Approximate
Thu 07:52:00 PM 19.8473 -78.9416 183° South  Level FlightAware Approximate
Thu 07:53:00 PM 19.7215 -78.9484 183° South  Level FlightAware Approximate
Thu 07:54:00 PM 19.5957 -78.9552 183° South  Level FlightAware Approximate
Thu 07:55:00 PM 19.4699 -78.9619 183° South  Level FlightAware Approximate
Thu 07:56:00 PM 19.3440 -78.9687 183° South  Level FlightAware Approximate
Thu 07:57:00 PM 19.2182 -78.9755 183° South  Level FlightAware Approximate
Thu 07:58:00 PM 19.0924 -78.9822 183° South  Level FlightAware Approximate
Thu 07:59:00 PM 18.9666 -78.9889 183° South  Level FlightAware Approximate
Thu 08:00:00 PM 18.8408 -78.9957 183° South  Level FlightAware Approximate
Thu 08:01:00 PM 18.7150 -79.0024 183° South  Level FlightAware Approximate
Thu 08:02:00 PM 18.5891 -79.0091 183° South  Level FlightAware Approximate
Thu 08:03:00 PM 18.4633 -79.0157 183° South  Level FlightAware Approximate
Thu 08:04:00 PM 18.3375 -79.0224 183° South  Level FlightAware Approximate
Thu 08:05:00 PM 18.2117 -79.0291 183° South  Level FlightAware Approximate
Thu 08:06:00 PM 18.0859 -79.0358 183° South  Level FlightAware Approximate
Thu 08:07:00 PM 17.9601 -79.0424 183° South  Level FlightAware Approximate
Thu 08:08:00 PM 17.8342 -79.0491 183° South  Level FlightAware Approximate
Thu 08:09:00 PM 17.7084 -79.0557 183° South  Level FlightAware Approximate
Thu 08:10:00 PM 17.5826 -79.0623 183° South  Level FlightAware Approximate
Thu 08:11:00 PM 17.4568 -79.0693 183° South  Level FlightAware Approximate
Thu 08:12:00 PM 17.3310 -79.0769 183° South  Level FlightAware Approximate
Thu 08:13:00 PM 17.2053 -79.0845 183° South  Level FlightAware Approximate
Thu 08:14:00 PM 17.0795 -79.0922 183° South  Level FlightAware Approximate
Thu 08:15:00 PM 16.9537 -79.0998 183° South  Level FlightAware Approximate
Thu 08:16:00 PM 16.8280 -79.1074 183° South  Level FlightAware Approximate
Thu 08:17:00 PM 16.7022 -79.1150 183° South  Level FlightAware Approximate
Thu 08:18:00 PM 16.5764 -79.1225 183° South  Level FlightAware Approximate
Thu 08:19:00 PM 16.4506 -79.1301 183° South  Level FlightAware Approximate
Thu 08:20:00 PM 16.3249 -79.1376 183° South  Level FlightAware Approximate
Thu 08:21:00 PM 16.1991 -79.1452 183° South  Level FlightAware Approximate
Thu 08:22:00 PM 16.0734 -79.1527 183° South  Level FlightAware Approximate
Thu 08:23:00 PM 15.9476 -79.1603 183° South  Level FlightAware Approximate
Thu 08:24:00 PM 15.8218 -79.1678 183° South  Level FlightAware Approximate
Thu 08:25:00 PM 15.6960 -79.1753 183° South  Level FlightAware Approximate
Thu 08:26:00 PM 15.5703 -79.1828 183° South  Level FlightAware Approximate
Thu 08:27:00 PM 15.4445 -79.1903 183° South  Level FlightAware Approximate
Thu 08:28:00 PM 15.3187 -79.1977 183° South  Level FlightAware Approximate
Thu 08:29:00 PM 15.1930 -79.2052 183° South  Level FlightAware Approximate
Thu 08:30:00 PM 15.0672 -79.2127 183° South  Level FlightAware Approximate
Thu 08:31:00 PM 14.9414 -79.2199 183° South  Level FlightAware Approximate
Thu 08:32:00 PM 14.8156 -79.2268 183° South  Level FlightAware Approximate
Thu 08:33:00 PM 14.6898 -79.2337 183° South  Level FlightAware Approximate
Thu 08:34:00 PM 14.5640 -79.2406 183° South  Level FlightAware Approximate
Thu 08:35:00 PM 14.4382 -79.2475 183° South  Level FlightAware Approximate
Thu 08:36:00 PM 14.3124 -79.2543 183° South  Level FlightAware Approximate
Thu 08:37:00 PM 14.1866 -79.2612 183° South  Level FlightAware Approximate
Thu 08:38:00 PM 14.0608 -79.2681 183° South  Level FlightAware Approximate
Thu 08:39:00 PM 13.9350 -79.2749 183° South  Level FlightAware Approximate
Thu 08:40:00 PM 13.8092 -79.2818 183° South  Level FlightAware Approximate
Thu 08:41:00 PM 13.6834 -79.2886 183° South  Level FlightAware Approximate
Thu 08:42:00 PM 13.5576 -79.2954 183° South  Level FlightAware Approximate
Thu 08:43:00 PM 13.4318 -79.3023 183° South  Level FlightAware Approximate
Thu 08:44:00 PM 13.3060 -79.3091 183° South  Level FlightAware Approximate
Thu 08:45:00 PM 13.1802 -79.3159 183° South  Level FlightAware Approximate
Thu 08:46:00 PM 13.0544 -79.3227 183° South  Level FlightAware Approximate
Thu 08:47:00 PM 12.9286 -79.3295 183° South  Level FlightAware Approximate
Thu 08:48:00 PM 12.8028 -79.3363 183° South  Level FlightAware Approximate
Thu 08:49:00 PM 12.6770 -79.3431 183° South  Level FlightAware Approximate
Thu 08:50:00 PM 12.5600 -79.3494 183° South  Level FlightAware Approximate
Thu 08:51:00 PM 12.4430 -79.3557 183° South  Level FlightAware Approximate
Thu 08:52:00 PM 12.3260 -79.3619 183° South  Level FlightAware Approximate
Thu 08:53:00 PM 12.2090 -79.3682 183° South  Level FlightAware Approximate
Thu 08:54:00 PM 12.0920 -79.3745 183° South  Level FlightAware Approximate
Thu 08:55:00 PM 11.9750 -79.3808 183° South  Level FlightAware Approximate
Thu 08:56:00 PM 11.8581 -79.3870 183° South  Level FlightAware Approximate
Thu 08:57:00 PM 11.7411 -79.3933 183° South  Level FlightAware Approximate
Thu 08:58:00 PM 11.6241 -79.3996 183° South  Level FlightAware Approximate
Thu 08:59:00 PM 11.5071 -79.4058 183° South  Level FlightAware Approximate
Thu 09:00:00 PM 11.3901 -79.4121 183° South  Level FlightAware Approximate
Thu 09:01:00 PM 11.2731 -79.4183 183° South  Level FlightAware Approximate
Thu 09:02:00 PM 11.1561 -79.4245 183° South  Level FlightAware Approximate
Thu 09:03:00 PM 11.0392 -79.4308 183° South  Level FlightAware Approximate
Thu 09:04:00 PM 10.9222 -79.4370 183° South  Level FlightAware Approximate
Thu 09:05:00 PM 10.8052 -79.4432 183° South  Level FlightAware Approximate
Thu 09:06:00 PM 10.6882 -79.4494 183° South  Level FlightAware Approximate
Thu 09:07:00 PM 10.5712 -79.4556 183° South  Level FlightAware Approximate
Thu 09:07:49 PM 9.6195 -79.5254 184° South 472 543 35,000  Level FlightAware ADS-B
Thu 09:08:00 PM 10.4542 -79.4618 183° South  Level FlightAware Approximate
Thu 09:08:19 PM 9.5662 -79.5287 184° South 471 542 35,000  Level FlightAware ADS-B
Thu 09:08:47 PM 9.4931 -79.5330 184° South 471 542 35,000  Level FlightAware ADS-B
Thu 09:10:45 PM 9.2364 -79.5482 184° South 469 540 35,000  Level FlightAware ADS-B
Thu 09:11:19 PM 9.1636 -79.5527 184° South 468 539 35,000  Level FlightAware ADS-B
Thu 09:11:49 PM 9.0989 -79.5565 184° South 468 539 35,000  Level FlightAware ADS-B
Thu 09:12:19 PM 9.0345 -79.5604 184° South 468 539 35,000  Level FlightAware ADS-B
Thu 09:12:47 PM 9.0051 -79.5621 184° South 467 537 35,000  Level FlightAware ADS-B
Thu 09:15:00 PM 8.7445 -79.5514 182° South  Level FlightAware Approximate
Thu 09:16:00 PM 8.6274 -79.5557 182° South  Level FlightAware Approximate
Thu 09:17:00 PM 8.5103 -79.5599 182° South  Level FlightAware Approximate
Thu 09:18:00 PM 8.3933 -79.5642 182° South  Level FlightAware Approximate
Thu 09:19:00 PM 8.2762 -79.5685 182° South  Level FlightAware Approximate
Thu 09:20:00 PM 8.1591 -79.5727 182° South  Level FlightAware Approximate
Thu 09:21:00 PM 8.0420 -79.5770 182° South  Level FlightAware Approximate
Thu 09:22:00 PM 7.9250 -79.5812 182° South  Level FlightAware Approximate
Thu 09:23:00 PM 7.8079 -79.5852 182° South  Level FlightAware Approximate
Thu 09:24:00 PM 7.6908 -79.5888 182° South  Level FlightAware Approximate
Thu 09:25:00 PM 7.5737 -79.5924 182° South  Level FlightAware Approximate
Thu 09:26:00 PM 7.4566 -79.5960 182° South  Level FlightAware Approximate
Thu 09:27:00 PM 7.3395 -79.5997 182° South  Level FlightAware Approximate
Thu 09:28:00 PM 7.2224 -79.6033 182° South  Level FlightAware Approximate
Thu 09:29:00 PM 7.1053 -79.6069 182° South  Level FlightAware Approximate
Thu 09:30:00 PM 6.9882 -79.6105 182° South  Level FlightAware Approximate
Thu 09:31:00 PM 6.8712 -79.6142 182° South  Level FlightAware Approximate
Thu 09:32:00 PM 6.7540 -79.6178 182° South  Level FlightAware Approximate
Thu 09:33:00 PM 6.6370 -79.6214 182° South  Level FlightAware Approximate
Thu 09:34:00 PM 6.5199 -79.6250 182° South  Level FlightAware Approximate
Thu 09:35:00 PM 6.4028 -79.6286 182° South  Level FlightAware Approximate
Thu 09:36:00 PM 6.2857 -79.6322 182° South  Level FlightAware Approximate
Thu 09:37:00 PM 6.1686 -79.6358 182° South  Level FlightAware Approximate
Thu 09:38:00 PM 6.0515 -79.6395 182° South  Level FlightAware Approximate
Thu 09:39:00 PM 5.9344 -79.6431 182° South  Level FlightAware Approximate
Thu 09:40:00 PM 5.8173 -79.6467 182° South  Level FlightAware Approximate
Thu 09:41:00 PM 5.7002 -79.6503 182° South  Level FlightAware Approximate
Thu 09:42:00 PM 5.5831 -79.6539 182° South  Level FlightAware Approximate
Thu 09:43:00 PM 5.4660 -79.6575 182° South  Level FlightAware Approximate
Thu 09:44:00 PM 5.3489 -79.6611 182° South  Level FlightAware Approximate
Thu 09:45:00 PM 5.2319 -79.6647 182° South  Level FlightAware Approximate
Thu 09:46:00 PM 5.1147 -79.6658 179° South  Level FlightAware Approximate
Thu 09:47:00 PM 4.9976 -79.6640 179° South  Level FlightAware Approximate
Thu 09:48:00 PM 4.8805 -79.6621 179° South  Level FlightAware Approximate
Thu 09:49:00 PM 4.7634 -79.6602 179° South  Level FlightAware Approximate
Thu 09:50:00 PM 4.6462 -79.6584 179° South  Level FlightAware Approximate
Thu 09:51:00 PM 4.5291 -79.6565 179° South  Level FlightAware Approximate
Thu 09:52:00 PM 4.4120 -79.6547 179° South  Level FlightAware Approximate
Thu 09:53:00 PM 4.2948 -79.6528 179° South  Level FlightAware Approximate
Thu 09:54:00 PM 4.1777 -79.6509 179° South  Level FlightAware Approximate
Thu 09:55:00 PM 4.0606 -79.6491 179° South  Level FlightAware Approximate
Thu 09:56:00 PM 3.9434 -79.6472 179° South  Level FlightAware Approximate
Thu 09:57:00 PM 3.8263 -79.6454 179° South  Level FlightAware Approximate
Thu 09:58:00 PM 3.7092 -79.6435 179° South  Level FlightAware Approximate
Thu 09:59:00 PM 3.5920 -79.6417 179° South  Level FlightAware Approximate
Thu 10:00:00 PM 3.4749 -79.6398 179° South  Level FlightAware Approximate
Thu 10:01:00 PM 3.3578 -79.6379 179° South  Level FlightAware Approximate
Thu 10:02:00 PM 3.2406 -79.6361 179° South  Level FlightAware Approximate
Thu 10:03:00 PM 3.1235 -79.6342 179° South  Level FlightAware Approximate
Thu 10:04:00 PM 3.0064 -79.6329 180° South  Level FlightAware Approximate
Thu 10:05:00 PM 2.8892 -79.6319 180° South  Level FlightAware Approximate
Thu 10:06:00 PM 2.7721 -79.6310 180° South  Level FlightAware Approximate
Thu 10:07:00 PM 2.6549 -79.6300 180° South  Level FlightAware Approximate
Thu 10:08:00 PM 2.5378 -79.6291 180° South  Level FlightAware Approximate
Thu 10:09:00 PM 2.4206 -79.6282 180° South  Level FlightAware Approximate
Thu 10:10:00 PM 2.3035 -79.6272 180° South  Level FlightAware Approximate
Thu 10:11:00 PM 2.1864 -79.6263 180° South  Level FlightAware Approximate
Thu 10:12:00 PM 2.0692 -79.6254 180° South  Level FlightAware Approximate
Thu 10:13:00 PM 1.9521 -79.6244 180° South  Level FlightAware Approximate
Thu 10:14:00 PM 1.8349 -79.6235 180° South  Level FlightAware Approximate
Thu 10:15:00 PM 1.7178 -79.6225 180° South  Level FlightAware Approximate
Thu 10:16:00 PM 1.6006 -79.6216 180° South  Level FlightAware Approximate
Thu 10:17:00 PM 1.4835 -79.6207 180° South  Level FlightAware Approximate
Thu 10:18:00 PM 1.3663 -79.6197 180° South  Level FlightAware Approximate
Thu 10:19:00 PM 1.2492 -79.6188 180° South  Level FlightAware Approximate
Thu 10:20:00 PM 1.1321 -79.6179 180° South  Level FlightAware Approximate
Thu 10:21:00 PM 1.0149 -79.6169 180° South  Level FlightAware Approximate
Thu 10:22:00 PM 0.9048 -79.6507 203° Southwest  Level FlightAware Approximate
Thu 10:23:00 PM 0.7973 -79.6972 203° Southwest  Level FlightAware Approximate
Thu 10:24:00 PM 0.6898 -79.7438 203° Southwest  Level FlightAware Approximate
Thu 10:25:00 PM 0.5823 -79.7904 203° Southwest  Level FlightAware Approximate
Thu 10:26:00 PM 0.4748 -79.8369 203° Southwest  Level FlightAware Approximate
Thu 10:27:00 PM 0.3673 -79.8835 203° Southwest  Level FlightAware Approximate
Thu 10:28:00 PM 0.2598 -79.9300 203° Southwest  Level FlightAware Approximate
Thu 10:29:00 PM 0.1523 -79.9766 203° Southwest  Level FlightAware Approximate
Thu 10:30:00 PM 0.0448 -80.0231 203° Southwest  Level FlightAware Approximate
Thu 10:31:00 PM -0.0627 -80.0697 203° Southwest  Level FlightAware Approximate
Thu 10:32:00 PM -0.1702 -80.1162 203° Southwest  Level FlightAware Approximate
Thu 10:33:00 PM -0.2777 -80.1628 203° Southwest  Level FlightAware Approximate
Thu 10:34:00 PM -0.3852 -80.2093 203° Southwest  Level FlightAware Approximate
Thu 10:35:00 PM -0.4927 -80.2559 203° Southwest  Level FlightAware Approximate
Thu 10:36:00 PM -0.6002 -80.3024 203° Southwest  Level FlightAware Approximate
Thu 10:37:00 PM -0.7077 -80.3490 203° Southwest  Level FlightAware Approximate
Thu 10:38:00 PM -0.8152 -80.3955 203° Southwest  Level FlightAware Approximate
Thu 10:39:00 PM -0.9227 -80.4421 203° Southwest  Level FlightAware Approximate
Thu 10:40:00 PM -1.0302 -80.4887 203° Southwest  Level FlightAware Approximate
Thu 10:41:00 PM -1.1377 -80.5351 202° Southwest  Level FlightAware Approximate
Thu 10:42:00 PM -1.2463 -80.5790 203° Southwest  Level FlightAware Approximate
Thu 10:43:00 PM -1.3545 -80.6241 203° Southwest  Level FlightAware Approximate
Thu 10:44:00 PM -1.4633 -80.6675 201° Southwest  Level FlightAware Approximate
Thu 10:45:00 PM -1.5719 -80.7110 207° Southwest  Level FlightAware Approximate
Thu 10:46:00 PM -1.6790 -80.7583 202° Southwest  Level FlightAware Approximate
Thu 10:47:00 PM -1.7877 -80.8019 204° Southwest  Level FlightAware Approximate
Thu 10:48:00 PM -1.8948 -80.8495 204° Southwest  Level FlightAware Approximate
Thu 10:49:00 PM -2.0035 -80.8930 201° Southwest  Level FlightAware Approximate
Thu 10:50:00 PM -2.1112 -80.9389 207° Southwest  Level FlightAware Approximate
Thu 10:51:00 PM -2.1874 -80.9707 45° Northeast  Level FlightAware Approximate
Thu 10:52:00 PM -2.1833 -80.8552 90° East  Level FlightAware Approximate
Thu 10:53:00 PM -2.1833 -80.7380 90° East  Level FlightAware Approximate
Thu 10:54:00 PM -2.1788 -80.6209 84° East  Level FlightAware Approximate
Thu 10:55:00 PM -2.1671 -80.5043 84° East  Level FlightAware Approximate
Thu 10:56:00 PM -2.1667 -80.3871 90° East  Level FlightAware Approximate
Thu 10:57:00 PM -2.1624 -80.2706 72° East  Level FlightAware Approximate
Thu 10:58:00 PM -2.1500 -80.1553 90° East  Level FlightAware Approximate
Thu 10:59:00 PM -2.1500 -80.0381 90° East  Level FlightAware Approximate
Thu 11:00:00 PM -2.1500 -79.9209 90° East  Level FlightAware Approximate
Thu 11:01:00 PM -2.1574 -79.8836 90° East  Level Estimated
Thu 11:02:00 PM -2.1574 -79.8836 90° East  Level Estimated
Thu 11:03:00 PM -2.1574 -79.8836 90° East  Level Estimated
Thu 11:04:00 PM -2.1574 -79.8836 90° East  Level Estimated
Thu 11:05:00 PM -2.1574 -79.8836 90° East  Level Estimated
Thu 11:06:00 PM -2.1574 -79.8836 90° East  Level Estimated
Thu 11:07:00 PM -2.1574 -79.8836 90° East  Level Estimated
Thu 11:08:00 PM -2.1574 -79.8836 90° East  Level Estimated
Thu 11:09:00 PM -2.1574 -79.8836 90° East  Level Estimated
Thu 11:10:00 PM -2.1574 -79.8836 90° East  Level Estimated
Thu 11:11:00 PM -2.1574 -79.8836 90° East  Level Estimated
Thu 11:12:00 PM -2.1574 -79.8836 90° East  Level Estimated
Thu 11:13:00 PM -2.1574 -79.8836 90° East  Level Estimated
Thu 11:14:00 PM -2.1574 -79.8836 90° East  Level Estimated
Thu 11:15:00 PM -2.1574 -79.8836 90° East  Level Estimated
Thu 11:16:00 PM -2.1574 -79.8836 90° East  Level Estimated
Thu 11:17:00 PM -2.1574 -79.8836 90° East  Level Estimated
Thu 11:18:00 PM -2.1574 -79.8836 90° East  Level Estimated
Thu 11:19:00 PM -2.1574 -79.8836 90° East  Level Estimated
Thu 11:20:00 PM -2.1574 -79.8836 90° East  Level Estimated
Thu 11:21:00 PM -2.1574 -79.8836 90° East  Level Estimated
Thu 11:22:00 PM -2.1574 -79.8836 90° East  Level Estimated
Thu 11:23:00 PM -2.1574 -79.8836 90° East  Level Estimated
Thu 11:24:00 PM -2.1574 -79.8836 90° East  Level Estimated
Thu 11:25:00 PM -2.1574 -79.8836 90° East  Level Estimated
Thu 11:26:00 PM -2.1574 -79.8836 90° East  Level Estimated
Thu 11:27:00 PM -2.1574 -79.8836 90° East  Level Estimated
Thu 11:28:00 PM -2.1574 -79.8836 90° East  Level Estimated
Thu 11:29:00 PM -2.1574 -79.8836 90° East  Level Estimated

Login

Don't have an account? Register now (free) for customized features, flight alerts, and more!